Time;durP1;ratioP1;P1;durP2;ratioP2;P2;SDS_P1;SDS_P2;PMS_P1;PMS_P2;Temp;Humidity;BMP_temperature;BMP_pressure;BME280_temperature;BME280_humidity;BME280_pressure;Samples;Min_cycle;Max_cycle;Signal;HPM_P1;HPM_P2
2023/08/30 00:01:39;;;;;;;1.05;0.80;;;;;;;;;;4975510;28;59313;-74
2023/08/30 00:04:04;;;;;;;0.70;0.70;;;;;;;;;;4972696;28;59311;-73
2023/08/30 00:06:31;;;;;;;0.50;0.50;;;;;;;;;;4974717;28;58684;-72
2023/08/30 00:08:57;;;;;;;0.32;0.30;;;;;;;;;;4975477;28;58556;-73
2023/08/30 00:11:22;;;;;;;0.50;0.40;;;;;;;;;;4978008;28;59234;-73
2023/08/30 00:13:47;;;;;;;0.60;0.60;;;;;;;;;;4976032;28;58496;-74
2023/08/30 00:16:13;;;;;;;0.55;0.55;;;;;;;;;;4959584;28;59773;-73
2023/08/30 00:18:38;;;;;;;0.50;0.50;;;;;;;;;;4968730;28;58579;-73
2023/08/30 00:21:03;;;;;;;0.60;0.60;;;;;;;;;;4974718;28;58697;-74
2023/08/30 00:23:28;;;;;;;0.30;0.30;;;;;;;;;;4973974;28;58459;-73
2023/08/30 00:25:53;;;;;;;0.57;0.40;;;;;;;;;;4974225;28;58518;-73
2023/08/30 00:28:18;;;;;;;0.40;0.40;;;;;;;;;;4972117;28;59290;-73
2023/08/30 00:30:44;;;;;;;0.50;0.50;;;;;;;;;;4973535;28;58344;-72
2023/08/30 00:33:09;;;;;;;0.37;0.37;;;;;;;;;;4975909;28;58319;-71
2023/08/30 00:35:34;;;;;;;0.60;0.50;;;;;;;;;;4969647;28;58410;-71
2023/08/30 00:37:59;;;;;;;0.50;0.50;;;;;;;;;;4973786;28;58323;-74
2023/08/30 00:40:25;;;;;;;1.90;0.50;;;;;;;;;;4958035;28;60151;-72
2023/08/30 00:42:50;;;;;;;0.52;0.52;;;;;;;;;;4975492;28;58428;-73
2023/08/30 00:45:15;;;;;;;0.50;0.50;;;;;;;;;;4972655;28;58393;-75
2023/08/30 00:47:40;;;;;;;0.47;0.40;;;;;;;;;;4973375;28;59377;-72
2023/08/30 00:50:05;;;;;;;0.70;0.47;;;;;;;;;;4968307;28;59140;-75
2023/08/30 00:52:31;;;;;;;0.55;0.55;;;;;;;;;;4955492;28;58411;-73
2023/08/30 00:54:56;;;;;;;0.40;0.40;;;;;;;;;;4972441;28;59524;-73
2023/08/30 00:57:21;;;;;;;0.50;0.40;;;;;;;;;;4974016;28;58995;-73
2023/08/30 00:59:46;;;;;;;0.43;0.43;;;;;;;;;;4971753;28;59716;-72
2023/08/30 01:02:12;;;;;;;0.30;0.30;;;;;;;;;;4973364;28;59679;-76
2023/08/30 01:04:37;;;;;;;0.38;0.38;;;;;;;;;;4977023;28;58633;-73
2023/08/30 01:07:02;;;;;;;0.60;0.57;;;;;;;;;;4972354;28;58815;-72
2023/08/30 01:09:27;;;;;;;0.50;0.50;;;;;;;;;;4973713;28;58937;-74
2023/08/30 01:12:11;;;;;;;0.50;0.30;;;;;;;;;;4970391;28;58488;-72
2023/08/30 01:14:49;;;;;;;0.40;0.40;;;;;;;;;;4971029;28;59771;-73
2023/08/30 01:17:16;;;;;;;0.40;0.40;;;;;;;;;;4971998;28;58535;-74
2023/08/30 01:19:56;;;;;;;0.37;0.37;;;;;;;;;;4956472;28;58583;-74
2023/08/30 01:22:33;;;;;;;0.30;0.30;;;;;;;;;;4972248;28;58472;-73
2023/08/30 01:24:58;;;;;;;0.20;0.20;;;;;;;;;;4970578;28;58417;-73
2023/08/30 01:27:23;;;;;;;0.45;0.45;;;;;;;;;;4971585;28;60458;-73
2023/08/30 01:29:49;;;;;;;0.47;0.30;;;;;;;;;;4973490;28;58632;-73
2023/08/30 01:32:14;;;;;;;0.68;0.40;;;;;;;;;;4973997;28;58314;-73
2023/08/30 01:34:40;;;;;;;0.77;0.57;;;;;;;;;;4974477;28;59711;-74
2023/08/30 01:37:07;;;;;;;0.40;0.40;;;;;;;;;;4974378;28;59868;-73
2023/08/30 01:39:32;;;;;;;0.30;0.30;;;;;;;;;;4976566;28;58404;-74
2023/08/30 01:42:00;;;;;;;0.30;0.30;;;;;;;;;;4973957;28;58880;-73
2023/08/30 01:44:29;;;;;;;0.47;0.40;;;;;;;;;;4970108;28;58534;-74
2023/08/30 01:46:55;;;;;;;0.52;0.40;;;;;;;;;;4978607;28;59462;-72
2023/08/30 01:49:21;;;;;;;0.40;0.40;;;;;;;;;;4971504;28;58437;-75
2023/08/30 01:51:46;;;;;;;0.30;0.30;;;;;;;;;;4957597;28;58353;-73
2023/08/30 01:54:14;;;;;;;0.40;0.40;;;;;;;;;;4973679;28;58637;-72
2023/08/30 01:56:39;;;;;;;0.30;0.30;;;;;;;;;;4969773;28;58444;-72
2023/08/30 01:59:04;;;;;;;0.43;0.43;;;;;;;;;;4975840;28;58582;-71
2023/08/30 02:01:29;;;;;;;0.40;0.40;;;;;;;;;;4972448;28;58502;-71
2023/08/30 02:03:54;;;;;;;0.30;0.30;;;;;;;;;;4968875;28;58655;-73
2023/08/30 02:06:40;;;;;;;0.27;0.27;;;;;;;;;;4974359;28;58554;-71
2023/08/30 02:09:13;;;;;;;0.52;0.35;;;;;;;;;;4952885;28;59274;-75
2023/08/30 02:11:39;;;;;;;0.40;0.40;;;;;;;;;;4966485;28;58573;-72
2023/08/30 02:14:06;;;;;;;0.30;0.30;;;;;;;;;;4968610;28;61290;-72
2023/08/30 02:16:32;;;;;;;0.55;0.40;;;;;;;;;;4968937;28;59350;-73
2023/08/30 02:18:57;;;;;;;0.50;0.30;;;;;;;;;;4971861;28;58460;-73
2023/08/30 02:21:23;;;;;;;0.57;0.57;;;;;;;;;;4970894;28;59249;-73
2023/08/30 02:23:51;;;;;;;0.30;0.30;;;;;;;;;;4968687;28;58890;-71
2023/08/30 02:26:17;;;;;;;0.50;0.50;;;;;;;;;;4969567;28;59740;-72
2023/08/30 02:28:43;;;;;;;0.30;0.30;;;;;;;;;;4972443;28;58790;-73
2023/08/30 02:31:08;;;;;;;0.30;0.30;;;;;;;;;;4970752;28;58471;-71
2023/08/30 02:33:33;;;;;;;0.38;0.38;;;;;;;;;;4975126;28;58564;-74
2023/08/30 02:35:58;;;;;;;0.30;0.30;;;;;;;;;;4972441;28;58291;-72
2023/08/30 02:38:23;;;;;;;0.63;0.63;;;;;;;;;;4978797;28;58415;-72
2023/08/30 02:40:49;;;;;;;0.40;0.40;;;;;;;;;;4978836;28;58368;-71
2023/08/30 02:43:14;;;;;;;0.60;0.60;;;;;;;;;;4974456;28;58956;-71
2023/08/30 02:45:39;;;;;;;0.40;0.40;;;;;;;;;;4975583;28;58416;-72
2023/08/30 02:48:05;;;;;;;0.30;0.30;;;;;;;;;;4972261;28;59328;-71
2023/08/30 02:50:30;;;;;;;0.57;0.57;;;;;;;;;;4976133;28;58534;-71
2023/08/30 02:52:55;;;;;;;0.30;0.30;;;;;;;;;;4978164;28;59327;-73
2023/08/30 02:55:20;;;;;;;0.67;0.60;;;;;;;;;;4975596;28;59297;-73
2023/08/30 02:57:46;;;;;;;0.30;0.30;;;;;;;;;;4973030;28;58460;-72
2023/08/30 03:00:11;;;;;;;0.40;0.40;;;;;;;;;;4871310;28;2370467;-74
2023/08/30 03:02:37;;;;;;;0.40;0.40;;;;;;;;;;4973900;28;58641;-73
2023/08/30 03:05:04;;;;;;;0.40;0.40;;;;;;;;;;4975017;28;58429;-72
2023/08/30 03:07:29;;;;;;;0.40;0.40;;;;;;;;;;4972672;28;58729;-74
2023/08/30 03:09:54;;;;;;;0.40;0.40;;;;;;;;;;4975505;28;58284;-73
2023/08/30 03:12:20;;;;;;;0.50;0.50;;;;;;;;;;4973135;28;58341;-74
2023/08/30 03:14:45;;;;;;;0.63;0.60;;;;;;;;;;4977103;28;58347;-73
2023/08/30 03:17:10;;;;;;;0.30;0.30;;;;;;;;;;4975485;28;58263;-72
2023/08/30 03:19:35;;;;;;;0.40;0.40;;;;;;;;;;4976824;28;59745;-73
2023/08/30 03:22:00;;;;;;;0.55;0.55;;;;;;;;;;4971310;28;58575;-74
2023/08/30 03:24:26;;;;;;;0.30;0.30;;;;;;;;;;4974707;28;58347;-74
2023/08/30 03:26:51;;;;;;;0.30;0.30;;;;;;;;;;4975339;28;58356;-75
2023/08/30 03:29:16;;;;;;;0.40;0.40;;;;;;;;;;4972150;28;58694;-73
2023/08/30 03:31:43;;;;;;;0.47;0.47;;;;;;;;;;4956064;28;60006;-75
2023/08/30 03:34:08;;;;;;;0.45;0.45;;;;;;;;;;4971567;28;58482;-76
2023/08/30 03:36:33;;;;;;;0.40;0.40;;;;;;;;;;4972272;28;58499;-74
2023/08/30 03:38:58;;;;;;;0.60;0.60;;;;;;;;;;4972154;28;58928;-74
2023/08/30 03:41:23;;;;;;;0.52;0.52;;;;;;;;;;4972784;28;58363;-72
2023/08/30 03:43:48;;;;;;;0.67;0.67;;;;;;;;;;4972900;28;58410;-73
2023/08/30 03:46:14;;;;;;;0.45;0.45;;;;;;;;;;4973378;28;58431;-73
2023/08/30 03:48:39;;;;;;;0.40;0.40;;;;;;;;;;4977085;28;58603;-74
2023/08/30 03:51:04;;;;;;;0.40;0.40;;;;;;;;;;4972622;28;59496;-73
2023/08/30 03:53:30;;;;;;;0.50;0.50;;;;;;;;;;4973321;28;59542;-74
2023/08/30 03:55:55;;;;;;;0.38;0.38;;;;;;;;;;4967965;28;58403;-73
2023/08/30 03:58:20;;;;;;;0.60;0.60;;;;;;;;;;4970923;28;59464;-74
2023/08/30 04:00:46;;;;;;;0.53;0.53;;;;;;;;;;4969967;28;59184;-74
2023/08/30 04:03:12;;;;;;;0.47;0.47;;;;;;;;;;4973096;28;58374;-75
2023/08/30 04:05:38;;;;;;;0.40;0.40;;;;;;;;;;4974190;28;58479;-73
2023/08/30 04:08:03;;;;;;;0.37;0.37;;;;;;;;;;4976897;28;58968;-73
2023/08/30 04:10:28;;;;;;;0.70;0.70;;;;;;;;;;4968496;28;58234;-73
2023/08/30 04:12:53;;;;;;;0.60;0.53;;;;;;;;;;4969494;28;58486;-75
2023/08/30 04:15:19;;;;;;;0.67;0.67;;;;;;;;;;4970488;28;58401;-73
2023/08/30 04:17:44;;;;;;;0.55;0.55;;;;;;;;;;4974532;28;58874;-73
2023/08/30 04:20:12;;;;;;;0.50;0.50;;;;;;;;;;4971694;28;59072;-73
2023/08/30 04:22:37;;;;;;;0.73;0.73;;;;;;;;;;4955567;28;58457;-73
2023/08/30 04:25:03;;;;;;;0.50;0.50;;;;;;;;;;4969583;28;61108;-73
2023/08/30 04:27:28;;;;;;;0.40;0.40;;;;;;;;;;4972327;28;58600;-72
2023/08/30 04:29:53;;;;;;;0.93;0.60;;;;;;;;;;4971105;28;58568;-74
2023/08/30 04:32:19;;;;;;;0.50;0.50;;;;;;;;;;4974886;28;60207;-73
2023/08/30 04:34:44;;;;;;;0.50;0.50;;;;;;;;;;4958027;28;58384;-72
2023/08/30 04:37:09;;;;;;;0.50;0.50;;;;;;;;;;4970827;28;58478;-73
2023/08/30 04:39:34;;;;;;;0.63;0.63;;;;;;;;;;4970422;28;59394;-73
2023/08/30 04:42:00;;;;;;;0.82;0.82;;;;;;;;;;4954057;28;58379;-74
2023/08/30 04:44:27;;;;;;;0.40;0.40;;;;;;;;;;4970996;28;59542;-74
2023/08/30 04:46:52;;;;;;;0.88;0.60;;;;;;;;;;4968150;28;58503;-74
2023/08/30 04:49:17;;;;;;;0.50;0.50;;;;;;;;;;4973506;28;58545;-74
2023/08/30 04:51:42;;;;;;;0.73;0.70;;;;;;;;;;4971680;28;60281;-73
2023/08/30 04:54:07;;;;;;;2.10;0.57;;;;;;;;;;4969757;28;58480;-73
2023/08/30 04:56:33;;;;;;;0.60;0.60;;;;;;;;;;4972560;28;59889;-74
2023/08/30 04:58:58;;;;;;;0.63;0.63;;;;;;;;;;4973391;28;59335;-74
2023/08/30 05:01:23;;;;;;;0.60;0.60;;;;;;;;;;4969335;28;58583;-74
2023/08/30 05:03:51;;;;;;;3.73;1.10;;;;;;;;;;4973611;28;58871;-74
2023/08/30 05:06:16;;;;;;;;;;;;;;;;;;4975709;28;58339;-73
2023/08/30 05:08:42;;;;;;;0.90;0.90;;;;;;;;;;4973279;28;58398;-75
2023/08/30 05:11:07;;;;;;;0.73;0.70;;;;;;;;;;4973822;28;58578;-73
2023/08/30 05:13:32;;;;;;;0.80;0.70;;;;;;;;;;4976480;28;58500;-73
2023/08/30 05:15:57;;;;;;;0.47;0.47;;;;;;;;;;4971971;28;58509;-74
2023/08/30 05:18:22;;;;;;;1.07;0.77;;;;;;;;;;4953426;28;59511;-74
2023/08/30 05:20:48;;;;;;;2.97;0.90;;;;;;;;;;4972421;28;58493;-74
2023/08/30 05:23:13;;;;;;;1.07;0.97;;;;;;;;;;4975971;28;58469;-74
2023/08/30 05:25:38;;;;;;;1.95;0.90;;;;;;;;;;4972688;28;58456;-73
2023/08/30 05:28:03;;;;;;;0.60;0.60;;;;;;;;;;4973680;28;58434;-75
2023/08/30 05:30:28;;;;;;;0.60;0.60;;;;;;;;;;4954475;28;60611;-73
2023/08/30 05:32:53;;;;;;;1.00;0.60;;;;;;;;;;4973012;28;58576;-74
2023/08/30 05:35:19;;;;;;;0.90;0.77;;;;;;;;;;4970254;28;58473;-74
2023/08/30 05:37:44;;;;;;;0.70;0.70;;;;;;;;;;4972756;28;58718;-74
2023/08/30 05:40:09;;;;;;;0.70;0.57;;;;;;;;;;4972717;28;58438;-74
2023/08/30 05:42:34;;;;;;;0.70;0.57;;;;;;;;;;4961214;28;60182;-70
2023/08/30 05:44:59;;;;;;;0.52;0.52;;;;;;;;;;4973273;28;58486;-69
2023/08/30 05:47:25;;;;;;;0.82;0.50;;;;;;;;;;4973405;28;58460;-71
2023/08/30 05:49:50;;;;;;;0.60;0.60;;;;;;;;;;4974301;28;58427;-70
2023/08/30 05:52:16;;;;;;;0.60;0.60;;;;;;;;;;4973715;28;59100;-71
2023/08/30 05:54:42;;;;;;;0.70;0.70;;;;;;;;;;4972122;28;57843;-71
2023/08/30 05:57:07;;;;;;;0.60;0.45;;;;;;;;;;4968616;28;59734;-71
2023/08/30 05:59:32;;;;;;;3.90;0.80;;;;;;;;;;4975920;28;58296;-71
2023/08/30 06:01:57;;;;;;;0.80;0.80;;;;;;;;;;4974503;28;58777;-70
2023/08/30 06:04:23;;;;;;;1.50;0.87;;;;;;;;;;4971050;28;58690;-70
2023/08/30 06:06:48;;;;;;;0.83;0.83;;;;;;;;;;4973503;28;58434;-69
2023/08/30 06:09:13;;;;;;;1.17;1.17;;;;;;;;;;4976944;28;58470;-71
2023/08/30 06:11:38;;;;;;;0.90;0.90;;;;;;;;;;4974014;28;59042;-71
2023/08/30 06:14:04;;;;;;;0.97;0.90;;;;;;;;;;4972306;28;58377;-71
2023/08/30 06:16:29;;;;;;;0.80;0.80;;;;;;;;;;4972578;28;59479;-70
2023/08/30 06:18:54;;;;;;;0.80;0.80;;;;;;;;;;4972231;28;58944;-72
2023/08/30 06:21:19;;;;;;;1.63;0.70;;;;;;;;;;4970159;28;59413;-69
2023/08/30 06:23:44;;;;;;;0.82;0.82;;;;;;;;;;4971257;28;58956;-71
2023/08/30 06:26:10;;;;;;;1.13;1.03;;;;;;;;;;4954976;28;58301;-70
2023/08/30 06:28:35;;;;;;;0.70;0.70;;;;;;;;;;4972775;28;58510;-70
2023/08/30 06:31:00;;;;;;;0.70;0.70;;;;;;;;;;4971381;28;59099;-70
2023/08/30 06:33:25;;;;;;;0.93;0.70;;;;;;;;;;4976445;28;58569;-72
2023/08/30 06:35:50;;;;;;;2.27;0.97;;;;;;;;;;4971618;28;59369;-71
2023/08/30 06:38:16;;;;;;;1.13;1.02;;;;;;;;;;4969334;28;60032;-70
2023/08/30 06:40:44;;;;;;;0.55;0.55;;;;;;;;;;4972937;28;58398;-71
2023/08/30 06:43:10;;;;;;;0.75;0.75;;;;;;;;;;4972527;28;58420;-70
2023/08/30 06:45:35;;;;;;;1.33;0.83;;;;;;;;;;4972734;28;58543;-70
2023/08/30 06:48:00;;;;;;;1.10;1.00;;;;;;;;;;4974562;28;58363;-70
2023/08/30 06:50:25;;;;;;;1.13;1.02;;;;;;;;;;4957684;28;60123;-73
2023/08/30 06:52:51;;;;;;;0.77;0.77;;;;;;;;;;4974981;28;58368;-72
2023/08/30 06:55:16;;;;;;;0.70;0.70;;;;;;;;;;4971591;28;58426;-71
2023/08/30 06:57:41;;;;;;;0.63;0.63;;;;;;;;;;4972008;28;58911;-72
2023/08/30 07:00:10;;;;;;;0.90;0.90;;;;;;;;;;4973880;28;58420;-70
2023/08/30 07:02:37;;;;;;;0.93;0.93;;;;;;;;;;4973188;28;59668;-71
2023/08/30 07:05:04;;;;;;;1.10;1.00;;;;;;;;;;4975185;28;58437;-70
2023/08/30 07:07:29;;;;;;;0.73;0.73;;;;;;;;;;4973621;28;59465;-73
2023/08/30 07:09:54;;;;;;;0.90;0.90;;;;;;;;;;4971674;28;59037;-70
2023/08/30 07:12:20;;;;;;;0.65;0.65;;;;;;;;;;4972343;28;58418;-69
2023/08/30 07:14:45;;;;;;;0.95;0.95;;;;;;;;;;4971271;28;58296;-75
2023/08/30 07:17:10;;;;;;;1.17;1.07;;;;;;;;;;4968053;28;58542;-69
2023/08/30 07:19:35;;;;;;;0.80;0.80;;;;;;;;;;4975202;28;58340;-70
2023/08/30 07:22:00;;;;;;;0.93;0.83;;;;;;;;;;4976818;28;58807;-70
2023/08/30 07:24:25;;;;;;;0.80;0.80;;;;;;;;;;4976015;28;58525;-71
2023/08/30 07:26:51;;;;;;;0.70;0.70;;;;;;;;;;4976413;28;59122;-69
2023/08/30 07:29:16;;;;;;;0.90;0.90;;;;;;;;;;4974700;28;59382;-71
2023/08/30 07:31:41;;;;;;;1.13;1.10;;;;;;;;;;4975710;28;58535;-72
2023/08/30 07:34:07;;;;;;;0.77;0.77;;;;;;;;;;4974097;28;58473;-71
2023/08/30 07:36:32;;;;;;;1.00;0.98;;;;;;;;;;4973345;28;58382;-70
2023/08/30 07:38:58;;;;;;;0.60;0.60;;;;;;;;;;4976122;28;58351;-71
2023/08/30 07:41:23;;;;;;;1.10;1.00;;;;;;;;;;4975955;28;58729;-70
2023/08/30 07:43:48;;;;;;;0.90;0.90;;;;;;;;;;4977934;28;58338;-71
2023/08/30 07:46:13;;;;;;;1.30;1.20;;;;;;;;;;4973902;28;58392;-72
2023/08/30 07:48:38;;;;;;;0.90;0.90;;;;;;;;;;4973186;28;58693;-71
2023/08/30 07:51:04;;;;;;;0.63;0.63;;;;;;;;;;4975094;28;58566;-71
2023/08/30 07:53:29;;;;;;;1.05;0.95;;;;;;;;;;4974241;28;58518;-69
2023/08/30 07:55:55;;;;;;;1.05;0.90;;;;;;;;;;4971975;28;60339;-70
2023/08/30 07:58:20;;;;;;;1.13;1.03;;;;;;;;;;4972263;28;58398;-70
2023/08/30 08:00:45;;;;;;;0.70;0.70;;;;;;;;;;4975205;28;58342;-71
2023/08/30 08:03:10;;;;;;;0.77;0.77;;;;;;;;;;4974174;28;58440;-74
2023/08/30 08:05:36;;;;;;;0.70;0.70;;;;;;;;;;4977431;28;58290;-73
2023/08/30 08:08:04;;;;;;;0.70;0.70;;;;;;;;;;4973318;28;58768;-75
2023/08/30 08:10:35;;;;;;;0.90;0.90;;;;;;;;;;4976438;28;62991;-74
2023/08/30 08:13:00;;;;;;;0.80;0.80;;;;;;;;;;4971326;28;60055;-73
2023/08/30 08:15:25;;;;;;;0.83;0.83;;;;;;;;;;4973841;28;58405;-73
2023/08/30 08:17:50;;;;;;;0.70;0.70;;;;;;;;;;4973580;28;58323;-74
2023/08/30 08:20:15;;;;;;;0.60;0.60;;;;;;;;;;4973635;28;59666;-74
2023/08/30 08:22:40;;;;;;;0.83;0.80;;;;;;;;;;4978399;28;58408;-74
2023/08/30 08:25:09;;;;;;;0.70;0.70;;;;;;;;;;4973706;28;58574;-74
2023/08/30 08:27:35;;;;;;;0.77;0.77;;;;;;;;;;4974972;28;58561;-74
2023/08/30 08:30:00;;;;;;;0.70;0.70;;;;;;;;;;4973831;28;58601;-73
2023/08/30 08:32:25;;;;;;;0.73;0.73;;;;;;;;;;4974732;28;58402;-74
2023/08/30 08:34:50;;;;;;;2.50;1.43;;;;;;;;;;4974328;28;58494;-74
2023/08/30 08:37:16;;;;;;;0.80;0.80;;;;;;;;;;4973021;28;57914;-74
2023/08/30 08:39:42;;;;;;;0.73;0.68;;;;;;;;;;4976306;28;59950;-73
2023/08/30 08:42:07;;;;;;;0.77;0.77;;;;;;;;;;4975033;28;58445;-73
2023/08/30 08:44:34;;;;;;;0.60;0.60;;;;;;;;;;4976066;28;57825;-75
2023/08/30 08:46:59;;;;;;;0.90;0.90;;;;;;;;;;4973645;28;58866;-75
2023/08/30 08:49:28;;;;;;;0.90;0.80;;;;;;;;;;4976978;28;59316;-74
2023/08/30 08:51:53;;;;;;;0.80;0.80;;;;;;;;;;4972611;28;60538;-75
2023/08/30 08:54:18;;;;;;;0.80;0.80;;;;;;;;;;4970384;28;58486;-73
2023/08/30 08:56:44;;;;;;;0.77;0.73;;;;;;;;;;4977547;28;58307;-74
2023/08/30 08:59:09;;;;;;;1.15;1.05;;;;;;;;;;4975226;28;59762;-75
2023/08/30 09:01:35;;;;;;;1.13;0.70;;;;;;;;;;4971761;28;62526;-73
2023/08/30 09:04:07;;;;;;;1.38;1.13;;;;;;;;;;4973490;28;58490;-73
2023/08/30 09:06:32;;;;;;;0.90;0.90;;;;;;;;;;4974201;28;58811;-74
2023/08/30 09:08:58;;;;;;;1.10;1.00;;;;;;;;;;4972372;28;59333;-73
2023/08/30 09:11:23;;;;;;;0.95;0.90;;;;;;;;;;4976023;28;58387;-74
2023/08/30 09:13:48;;;;;;;0.93;0.87;;;;;;;;;;4974173;28;59598;-74
2023/08/30 09:16:14;;;;;;;1.02;0.85;;;;;;;;;;4971830;28;58340;-74
2023/08/30 09:18:40;;;;;;;0.70;0.70;;;;;;;;;;4978425;28;58443;-75
2023/08/30 09:21:08;;;;;;;1.17;1.08;;;;;;;;;;4973651;28;58585;-75
2023/08/30 09:23:34;;;;;;;0.70;0.70;;;;;;;;;;4974348;28;59011;-73
2023/08/30 09:25:59;;;;;;;1.52;1.08;;;;;;;;;;4974843;28;59538;-75
2023/08/30 09:28:24;;;;;;;1.43;1.33;;;;;;;;;;4974703;28;58499;-73
2023/08/30 09:30:50;;;;;;;1.00;1.00;;;;;;;;;;4973856;28;58586;-73
2023/08/30 09:33:15;;;;;;;1.05;0.98;;;;;;;;;;4974379;28;59535;-74
2023/08/30 09:35:44;;;;;;;1.27;1.17;;;;;;;;;;4971140;28;58440;-74
2023/08/30 09:38:15;;;;;;;1.17;1.08;;;;;;;;;;4975460;28;60574;-73
2023/08/30 09:40:40;;;;;;;1.10;1.00;;;;;;;;;;4973756;28;59661;-74
2023/08/30 09:43:06;;;;;;;1.15;1.05;;;;;;;;;;4974075;28;58473;-75
2023/08/30 09:45:31;;;;;;;1.10;1.00;;;;;;;;;;4974867;28;58454;-74
2023/08/30 09:47:56;;;;;;;1.20;1.10;;;;;;;;;;4972788;28;58726;-74
2023/08/30 09:50:22;;;;;;;1.00;0.90;;;;;;;;;;4973642;28;58422;-74
2023/08/30 09:52:51;;;;;;;1.20;1.00;;;;;;;;;;4975130;28;59422;-76
2023/08/30 09:55:17;;;;;;;0.73;0.73;;;;;;;;;;4974113;28;58234;-75
2023/08/30 09:57:43;;;;;;;0.77;0.77;;;;;;;;;;4970632;28;59647;-74
2023/08/30 10:00:08;;;;;;;1.08;0.98;;;;;;;;;;4973522;28;59288;-74
2023/08/30 10:02:34;;;;;;;0.85;0.85;;;;;;;;;;4972408;28;58356;-74
2023/08/30 10:04:59;;;;;;;1.52;1.23;;;;;;;;;;4978056;28;60067;-74
2023/08/30 10:07:24;;;;;;;1.00;0.90;;;;;;;;;;4973906;28;58412;-73
2023/08/30 10:09:50;;;;;;;1.00;0.90;;;;;;;;;;4957200;28;58544;-74
2023/08/30 10:12:16;;;;;;;1.58;1.48;;;;;;;;;;4976294;28;58698;-74
2023/08/30 10:14:41;;;;;;;1.30;1.23;;;;;;;;;;4970457;28;59245;-73
2023/08/30 10:17:09;;;;;;;1.17;0.90;;;;;;;;;;4974371;28;58510;-73
2023/08/30 10:19:34;;;;;;;1.30;1.20;;;;;;;;;;4970677;28;58483;-74
2023/08/30 10:21:59;;;;;;;0.80;0.80;;;;;;;;;;4971647;28;57862;-73
2023/08/30 10:24:25;;;;;;;1.05;0.95;;;;;;;;;;4972210;28;59246;-73
2023/08/30 10:26:50;;;;;;;1.20;1.08;;;;;;;;;;4971312;28;58595;-74
2023/08/30 10:29:16;;;;;;;1.08;0.98;;;;;;;;;;4975624;28;58657;-74
2023/08/30 10:31:41;;;;;;;0.95;0.95;;;;;;;;;;4972810;28;59399;-75
2023/08/30 10:34:14;;;;;;;1.17;1.07;;;;;;;;;;4954971;28;60374;-70
2023/08/30 10:36:39;;;;;;;1.23;0.90;;;;;;;;;;4972404;28;58373;-71
2023/08/30 10:39:10;;;;;;;1.23;1.13;;;;;;;;;;4971334;28;58917;-69
2023/08/30 10:41:35;;;;;;;1.20;1.10;;;;;;;;;;4972058;28;58413;-72
2023/08/30 10:44:01;;;;;;;1.33;1.17;;;;;;;;;;4970016;28;60279;-70
2023/08/30 10:46:33;;;;;;;1.10;1.10;;;;;;;;;;4971751;28;58649;-71
2023/08/30 10:49:14;;;;;;;1.35;1.25;;;;;;;;;;4970311;28;58418;-70
2023/08/30 10:51:39;;;;;;;1.17;1.08;;;;;;;;;;4972030;28;59677;-70
2023/08/30 10:54:12;;;;;;;1.25;1.00;;;;;;;;;;4970551;28;58904;-71
2023/08/30 10:56:58;;;;;;;1.15;1.05;;;;;;;;;;4975193;28;58423;-71
2023/08/30 10:59:24;;;;;;;1.35;1.10;;;;;;;;;;4975758;28;59380;-70
2023/08/30 11:01:53;;;;;;;1.20;1.10;;;;;;;;;;4976872;28;58396;-70
2023/08/30 11:04:18;;;;;;;1.55;1.13;;;;;;;;;;4962256;28;59641;-69
2023/08/30 11:06:45;;;;;;;1.27;1.17;;;;;;;;;;4957366;28;58655;-70
2023/08/30 11:09:11;;;;;;;0.98;0.80;;;;;;;;;;4975724;28;59365;-69
2023/08/30 11:11:37;;;;;;;0.90;0.90;;;;;;;;;;4973924;28;59607;-70
2023/08/30 11:14:09;;;;;;;1.05;0.95;;;;;;;;;;4974970;28;60049;-70
2023/08/30 11:16:35;;;;;;;1.30;1.20;;;;;;;;;;4975414;28;58407;-69
2023/08/30 11:19:02;;;;;;;1.10;1.05;;;;;;;;;;4974496;28;59454;-70
2023/08/30 11:21:27;;;;;;;1.35;1.25;;;;;;;;;;4976826;28;58435;-72
2023/08/30 11:23:52;;;;;;;1.10;1.00;;;;;;;;;;4977923;28;59444;-69
2023/08/30 11:26:17;;;;;;;0.80;0.80;;;;;;;;;;4973464;28;58840;-71
2023/08/30 11:28:45;;;;;;;0.90;0.90;;;;;;;;;;4958037;28;58456;-70
2023/08/30 11:31:17;;;;;;;1.10;1.00;;;;;;;;;;4971813;28;58836;-70
2023/08/30 11:33:49;;;;;;;1.00;0.90;;;;;;;;;;4975528;28;58295;-70
2023/08/30 11:36:14;;;;;;;1.00;1.00;;;;;;;;;;4974750;28;58352;-70
2023/08/30 11:38:40;;;;;;;1.30;1.20;;;;;;;;;;4973556;28;59210;-70
2023/08/30 11:41:06;;;;;;;1.20;1.10;;;;;;;;;;4974094;28;58776;-70
2023/08/30 11:43:31;;;;;;;1.02;0.98;;;;;;;;;;4964987;28;58363;-71
2023/08/30 11:45:56;;;;;;;1.63;1.13;;;;;;;;;;4974428;28;59250;-71
2023/08/30 11:48:22;;;;;;;1.20;1.10;;;;;;;;;;4973342;28;58313;-71
2023/08/30 11:50:47;;;;;;;1.00;0.90;;;;;;;;;;4978514;28;60263;-71
2023/08/30 11:53:12;;;;;;;1.23;1.13;;;;;;;;;;4975668;28;58465;-69
2023/08/30 11:55:37;;;;;;;1.40;1.30;;;;;;;;;;4973145;28;58689;-70
2023/08/30 11:58:03;;;;;;;1.27;1.17;;;;;;;;;;4970356;28;59131;-70
2023/08/30 12:00:28;;;;;;;1.70;1.40;;;;;;;;;;4972392;28;60445;-70
2023/08/30 12:02:53;;;;;;;1.90;1.57;;;;;;;;;;4974125;28;58139;-71
2023/08/30 12:05:18;;;;;;;1.67;1.57;;;;;;;;;;4971113;28;58954;-70
2023/08/30 12:07:45;;;;;;;1.27;1.17;;;;;;;;;;4967589;28;58471;-74
2023/08/30 12:10:11;;;;;;;1.33;1.25;;;;;;;;;;4965360;28;58840;-70
2023/08/30 12:12:37;;;;;;;1.40;1.30;;;;;;;;;;4971672;28;58537;-75
2023/08/30 12:15:09;;;;;;;1.05;1.02;;;;;;;;;;4964761;28;58467;-72
2023/08/30 12:17:35;;;;;;;1.13;1.05;;;;;;;;;;4970712;28;58596;-70
2023/08/30 12:20:00;;;;;;;1.20;1.10;;;;;;;;;;4977351;28;58571;-71
2023/08/30 12:22:41;;;;;;;1.33;1.20;;;;;;;;;;4969515;28;58123;-70
2023/08/30 12:25:19;;;;;;;1.33;1.23;;;;;;;;;;4971886;28;58586;-69
2023/08/30 12:27:44;;;;;;;;;;;;;;;;;;4955437;28;58391;-71
2023/08/30 12:30:09;;;;;;;1.67;1.05;;;;;;;;;;4972463;28;58654;-70
2023/08/30 12:32:34;;;;;;;1.13;1.03;;;;;;;;;;4972221;28;59773;-70
2023/08/30 12:35:00;;;;;;;1.43;1.03;;;;;;;;;;4972432;28;58380;-70
2023/08/30 12:37:25;;;;;;;1.20;1.10;;;;;;;;;;4972892;28;58397;-71
2023/08/30 12:39:50;;;;;;;1.00;0.90;;;;;;;;;;4974003;28;58526;-74
2023/08/30 12:42:15;;;;;;;1.25;1.15;;;;;;;;;;4975714;28;58030;-70
2023/08/30 12:44:40;;;;;;;1.25;1.23;;;;;;;;;;4972100;28;59043;-72
2023/08/30 12:47:05;;;;;;;0.98;0.85;;;;;;;;;;4973502;28;58696;-70
2023/08/30 12:49:30;;;;;;;1.70;1.43;;;;;;;;;;4973016;28;58816;-70
2023/08/30 12:51:56;;;;;;;1.37;1.27;;;;;;;;;;4970595;28;58776;-69
2023/08/30 12:54:21;;;;;;;1.27;1.10;;;;;;;;;;4974099;28;58368;-70
2023/08/30 12:56:46;;;;;;;1.70;1.60;;;;;;;;;;4972416;28;58404;-70
2023/08/30 12:59:11;;;;;;;1.58;1.38;;;;;;;;;;4954135;28;59645;-71
2023/08/30 13:01:36;;;;;;;0.83;0.83;;;;;;;;;;4972000;28;58515;-72
2023/08/30 13:04:03;;;;;;;1.20;1.10;;;;;;;;;;4973100;28;59120;-70
2023/08/30 13:06:28;;;;;;;1.02;1.00;;;;;;;;;;4971951;28;59222;-69
2023/08/30 13:08:53;;;;;;;1.40;1.23;;;;;;;;;;4972548;28;58478;-70
2023/08/30 13:11:18;;;;;;;2.07;1.87;;;;;;;;;;4971066;28;59563;-72
2023/08/30 13:13:43;;;;;;;1.40;1.30;;;;;;;;;;4971718;28;58459;-69
2023/08/30 13:16:09;;;;;;;1.42;1.33;;;;;;;;;;4969232;28;58488;-74
2023/08/30 13:18:34;;;;;;;0.97;0.93;;;;;;;;;;4970938;28;58332;-69
2023/08/30 13:20:59;;;;;;;1.57;1.47;;;;;;;;;;4968343;28;58637;-72
2023/08/30 13:23:24;;;;;;;1.38;1.27;;;;;;;;;;4971907;28;58741;-71
2023/08/30 13:25:49;;;;;;;1.30;1.10;;;;;;;;;;4955216;28;58344;-70
2023/08/30 13:28:14;;;;;;;1.57;1.47;;;;;;;;;;4971136;28;58374;-69
2023/08/30 13:30:46;;;;;;;1.70;1.50;;;;;;;;;;4973088;28;58921;-70
2023/08/30 13:33:12;;;;;;;1.60;1.40;;;;;;;;;;4972712;28;58450;-70
2023/08/30 13:35:39;;;;;;;1.20;1.10;;;;;;;;;;4969804;28;58877;-70
2023/08/30 13:38:04;;;;;;;1.40;1.30;;;;;;;;;;4972071;28;58566;-69
2023/08/30 13:40:29;;;;;;;1.55;1.30;;;;;;;;;;4972609;28;58719;-69
2023/08/30 13:42:54;;;;;;;1.58;1.48;;;;;;;;;;4969956;28;59783;-69
2023/08/30 13:45:19;;;;;;;1.07;1.07;;;;;;;;;;4974191;28;57956;-71
2023/08/30 13:47:46;;;;;;;1.10;1.10;;;;;;;;;;4976599;28;58563;-69
2023/08/30 13:50:11;;;;;;;1.58;1.42;;;;;;;;;;4973049;28;59405;-72
2023/08/30 13:52:36;;;;;;;1.23;1.20;;;;;;;;;;4976170;28;59607;-71
2023/08/30 13:55:02;;;;;;;1.27;1.20;;;;;;;;;;4968080;28;59211;-70
2023/08/30 13:57:27;;;;;;;1.48;1.38;;;;;;;;;;4966333;28;58451;-73
2023/08/30 13:59:52;;;;;;;1.40;1.30;;;;;;;;;;4956324;28;58242;-69
2023/08/30 14:02:17;;;;;;;1.70;1.60;;;;;;;;;;4972201;28;59528;-71
2023/08/30 14:04:42;;;;;;;1.27;1.17;;;;;;;;;;4968365;28;58007;-70
2023/08/30 14:07:09;;;;;;;1.73;1.50;;;;;;;;;;4972751;28;57994;-71
2023/08/30 14:09:34;;;;;;;1.35;1.25;;;;;;;;;;4957061;28;59328;-71
2023/08/30 14:11:59;;;;;;;1.30;1.20;;;;;;;;;;4974719;28;58760;-71
2023/08/30 14:14:24;;;;;;;2.00;1.80;;;;;;;;;;4965167;28;59359;-69
2023/08/30 14:16:49;;;;;;;2.13;1.40;;;;;;;;;;4972629;28;58432;-73
2023/08/30 14:19:15;;;;;;;1.30;1.13;;;;;;;;;;4969942;28;58327;-69
2023/08/30 14:21:40;;;;;;;1.40;1.30;;;;;;;;;;4970971;28;58795;-70
2023/08/30 14:24:06;;;;;;;1.40;1.30;;;;;;;;;;4969162;28;58866;-70
2023/08/30 14:26:31;;;;;;;1.30;1.20;;;;;;;;;;4968770;28;58478;-69
2023/08/30 14:28:56;;;;;;;1.50;1.40;;;;;;;;;;4976179;28;58391;-71
2023/08/30 14:31:21;;;;;;;2.37;1.43;;;;;;;;;;4975941;28;59924;-71
2023/08/30 14:33:46;;;;;;;1.47;1.37;;;;;;;;;;4976902;28;58429;-75
2023/08/30 14:36:12;;;;;;;1.10;1.00;;;;;;;;;;4973163;28;58795;-71